Currently N/A°F in San Jacinto, California, USA
N/A°F Alert
64°F / 64°F
N/A
0.00"
Friday, April 26, 2019 5:08 AM PDT

San Jacinto, California Weather Summary
Last 36 Hours

Temperature Winds Hourly Humidity Dewpoint
Time Report Norm Report Norm Max Gusts Precip. Rpt. Norm Rpt. Norm Pressure
1Fri 12:02 AM  64.0°F  56°F  calm  1 mph  none  0.00"  46%  68%  42°F  45°F  30.03"
2Fri 12:00 AM  64.0°F  56°F  calm  1 mph  2 mph  0.00"  45%  68%  41°F  45°F  30.03"
Thu 11:00 PM  67.5°F  58°F  1 mph SW  1 mph  3 mph  0.00"  41%  65%  42°F  46°F  30.03"
Thu 10:00 PM  69.8°F  60°F  calm  1 mph  3 mph  0.00"  41%  62%  44°F  46°F  30.03"
Thu 09:00 PM  72.1°F  62°F  1 mph SW  2 mph  5 mph  0.00"  38%  58%  44°F  46°F  30.02"
Thu 08:00 PM  75.2°F  64°F  2 mph SW  2 mph  11 mph  0.00"  35%  53%  45°F  46°F  30.00"
Thu 07:00 PM  79.3°F  68°F  7 mph SW  4 mph  16 mph  0.00"  28%  45%  42°F  45°F  29.98"
Thu 06:00 PM  82.9°F  72°F  10 mph SW  5 mph  15 mph  0.00"  22%  39%  39°F  44°F  29.97"
Thu 05:00 PM  86.2°F  74°F  7 mph S  6 mph  16 mph  0.00"  25%  34%  45°F  43°F  29.95"
Thu 04:00 PM  88.0°F  75°F  10 mph S  6 mph  17 mph  0.00"  23%  31%  44°F  41°F  29.95"
Thu 03:00 PM  88.9°F  76°F  8 mph SW  5 mph  15 mph  0.00"  23%  29%  45°F  40°F  29.96"
Thu 02:00 PM  88.3°F  75°F  3 mph N  4 mph  11 mph  0.00"  22%  30%  43°F  40°F  29.98"
Thu 01:00 PM  85.3°F  73°F  4 mph NW  3 mph  11 mph  0.00"  26%  31%  45°F  40°F  30.00"
Thu 12:00 PM  82.9°F  71°F  3 mph NW  2 mph  9 mph  0.00"  29%  35%  46°F  41°F  30.01"
Thu 11:00 AM  78.6°F  68°F  4 mph NW  2 mph  8 mph  0.00"  31%  41%  44°F  42°F  30.03"
Thu 10:00 AM  75.7°F  64°F  3 mph W  1 mph  6 mph  0.00"  34%  49%  44°F  44°F  30.03"
Thu 09:00 AM  69.4°F  59°F  calm  1 mph  3 mph  0.00"  45%  58%  46°F  44°F  30.03"
Thu 08:00 AM  63.9°F  55°F  calm  1 mph  2 mph  0.00"  56%  66%  47°F  44°F  30.03"
Thu 07:00 AM  55.8°F  51°F  calm  1 mph  2 mph  0.00"  69%  73%  45°F  43°F  30.03"
Thu 06:00 AM  55.6°F  51°F  calm  1 mph  3 mph  0.00"  68%  74%  45°F  42°F  30.01"
Thu 05:00 AM  56.3°F  51°F  calm  1 mph  none  0.00"  66%  74%  45°F  43°F  30.00"
Thu 04:00 AM  57.6°F  52°F  calm  1 mph  none  0.00"  66%  73%  46°F  43°F  30.01"
Thu 03:00 AM  59.2°F  53°F  calm  1 mph  1 mph  0.00"  67%  71%  48°F  44°F  30.02"
Thu 02:00 AM  61.7°F  54°F  calm  1 mph  6 mph  0.00"  62%  70%  48°F  44°F  30.02"
Thu 01:00 AM  62.4°F  55°F  calm  1 mph  1 mph  0.00"  62%  69%  49°F  45°F  30.03"
Thu 12:00 AM  64.4°F  57°F  calm  1 mph  3 mph  0.00"  60%  67%  50°F  45°F  30.04"
Wed 11:00 PM  67.6°F  58°F  1 mph S  1 mph  6 mph  0.00"  52%  65%  49°F  46°F  30.03"
Wed 10:01 PM  68.9°F  60°F  3 mph SE  1 mph  3 mph  0.00"  46%  62%  47°F  46°F  30.02"
Wed 09:00 PM  71.6°F  62°F  1 mph SW  2 mph  7 mph  0.00"  45%  58%  48°F  46°F  30.01"
Wed 08:00 PM  74.5°F  64°F  5 mph SW  2 mph  9 mph  0.00"  42%  52%  49°F  46°F  29.99"
Wed 07:00 PM  79.2°F  68°F  6 mph SW  4 mph  14 mph  0.00"  36%  45%  49°F  45°F  29.96"
Wed 06:00 PM  83.3°F  72°F  6 mph SW  5 mph  14 mph  0.00"  33%  38%  50°F  44°F  29.95"
Wed 05:00 PM  86.0°F  74°F  7 mph SW  6 mph  16 mph  0.00"  31%  34%  51°F  43°F  29.95"
Wed 04:00 PM  87.1°F  76°F  12 mph NW  6 mph  16 mph  0.00"  25%  30%  46°F  41°F  29.95"
Wed 03:00 PM  86.7°F  76°F  8 mph NW  5 mph  13 mph  0.00"  27%  28%  48°F  40°F  29.97"
Wed 02:00 PM  85.3°F  75°F  7 mph W  3 mph  10 mph  0.00"  30%  28%  49°F  39°F  30.00"
Wed 01:00 PM  83.8°F  74°F  2 mph SW  3 mph  11 mph  0.00"  29%  30%  47°F  39°F  30.02"
Wed 12:00 PM  80.1°F  71°F  5 mph SW  2 mph  11 mph  0.00"  33%  34%  47°F  40°F  30.04"

  1. Current weather data. No green row appears if the current weather data is also the high or low for the current day.
  2. High temperature for the current day.
  3. Low temperature for the current day.

The San Jacinto, California weather pages are a service of WeatherCurrents. San Jacinto is located in the heart of the San Jacinto Valley, near Hemet, the Soboba Casino, and at the foot of the San Jacinto Mountains.
Copyright ©2019  WeatherCurrents. All rights reserved. - Submit questions and comments - Privacy Policy

This page automatically refreshes every 10 minutes.